Impacts METAR Board
IDs:

KMDW - Chicago/Midway Intl, IL, US

Updated at: 0500 UTC 21 Apr 2018
Potential Impact None Slight Moderate High
Time 20/17Z 20/18Z 20/19Z 20/20Z 20/21Z 20/22Z 20/23Z 21/00Z 21/01Z 21/02Z 21/03Z 21/04Z 21/05Z
Temp56 57 58 59 58 57 56 53 50 48 47 47 45
Dewpt21 25 18 17 14 11 11 8 11 13 14 16 19
Altim30.52 30.50 30.49 30.47 30.46 30.46 30.44 30.43 30.43 30.44 30.45 30.44 30.46
VIS10 10 10 10 10 10 10 10 10 10 10 10 10
CIG-- 250 250 250 -- -- 250 250 250 250 250 250 250
CoverFEWBKNBKNBKNSCTSCTBKNBKNBKNBKNBKNBKNOVC
FltCatVFRVFRVFRVFRVFRVFRVFRVFRVFRVFRVFRVFRVFR
WX--------------------------
WDir080606080801009090901008090
WSpd0 8 8 10 12 10 13 9 6 4 4 4 4
WGst-- -- -- -- -- -- -- -- -- -- -- -- --
Raw hourly METARs
KMDW 201653Z 00000KT 10SM FEW250 13/M06 A3052 RMK AO2 SLP337 T01331061
KMDW 201753Z 08008KT 10SM BKN250 14/M04 A3050 RMK AO2 SLP331 T01391039 10144 20022 58009
KMDW 201853Z 06008KT 10SM BKN250 14/M08 A3049 RMK AO2 SLP327 T01441078
KMDW 201953Z 06010KT 040V100 10SM BKN250 15/M08 A3047 RMK AO2 SLP322 T01501083
KMDW 202053Z 08012KT 10SM SCT250 14/M10 A3046 RMK AO2 SLP320 T01441100 56012
KMDW 202153Z 08010KT 10SM FEW002 SCT250 14/M12 A3046 RMK AO2 SLP318 FU FEW002 T01391117
KMDW 202253Z 10013KT 10SM BKN250 13/M12 A3044 RMK AO2 SLP311 T01331117
KMDW 202353Z 09009KT 10SM BKN250 12/M13 A3043 RMK AO2 SLP310 T01171133 10161 20117 58010
KMDW 210053Z 09006KT 10SM BKN250 10/M12 A3043 RMK AO2 SLP310 T01001117
KMDW 210153Z 09004KT 10SM BKN250 09/M11 A3044 RMK AO2 SLP313 T00891106
KMDW 210253Z 10004KT 10SM BKN250 08/M10 A3045 RMK AO2 SLP315 T00831100 53006
KMDW 210353Z 08004KT 10SM FEW006 BKN250 08/M09 A3044 RMK AO2 SLP312 FU FEW006 T00831089
KMDW 210453Z 09004KT 10SM OVC250 07/M07 A3046 RMK AO2 SLP316 T00721072



Page loaded:  05:45 UTC  |   10:45 PM Pacific  |   11:45 PM Mountain  |   12:45 AM Central  |   01:45 AM Eastern

 

ADVISORIES

FORECASTS

FORECASTS

OBSERVATIONS

USER TOOLS

ABOUT US